sensor_id;sensor_type;location;lat;lon;timestamp;P1;durP1;ratioP1;P2;durP2;ratioP2
75061;SDS011;63641;46.526;24.612;2023-01-16T00:01:52;17.75;;;13.52;;
75061;SDS011;63641;46.526;24.612;2023-01-16T00:04:21;16.02;;;12.88;;
75061;SDS011;63641;46.526;24.612;2023-01-16T00:06:48;17.75;;;12.20;;
75061;SDS011;63641;46.526;24.612;2023-01-16T00:09:15;15.93;;;11.63;;
75061;SDS011;63641;46.526;24.612;2023-01-16T00:11:42;21.95;;;14.50;;
75061;SDS011;63641;46.526;24.612;2023-01-16T00:14:09;20.90;;;13.95;;
75061;SDS011;63641;46.526;24.612;2023-01-16T00:16:36;19.10;;;12.85;;
75061;SDS011;63641;46.526;24.612;2023-01-16T00:19:03;22.20;;;14.45;;
75061;SDS011;63641;46.526;24.612;2023-01-16T00:21:30;26.02;;;14.98;;
75061;SDS011;63641;46.526;24.612;2023-01-16T00:23:57;20.75;;;13.82;;
75061;SDS011;63641;46.526;24.612;2023-01-16T00:26:25;18.80;;;12.90;;
75061;SDS011;63641;46.526;24.612;2023-01-16T00:28:53;17.17;;;12.80;;
75061;SDS011;63641;46.526;24.612;2023-01-16T00:31:21;17.73;;;13.63;;
75061;SDS011;63641;46.526;24.612;2023-01-16T00:33:54;17.05;;;11.90;;
75061;SDS011;63641;46.526;24.612;2023-01-16T00:36:21;15.55;;;12.43;;
75061;SDS011;63641;46.526;24.612;2023-01-16T00:38:48;17.02;;;12.38;;
75061;SDS011;63641;46.526;24.612;2023-01-16T00:41:15;15.68;;;11.50;;
75061;SDS011;63641;46.526;24.612;2023-01-16T00:43:42;14.80;;;10.80;;
75061;SDS011;63641;46.526;24.612;2023-01-16T00:46:08;15.35;;;11.00;;
75061;SDS011;63641;46.526;24.612;2023-01-16T00:48:35;15.07;;;11.10;;
75061;SDS011;63641;46.526;24.612;2023-01-16T00:51:02;22.73;;;14.95;;
75061;SDS011;63641;46.526;24.612;2023-01-16T00:53:29;22.52;;;16.42;;
75061;SDS011;63641;46.526;24.612;2023-01-16T00:55:56;24.63;;;17.27;;
75061;SDS011;63641;46.526;24.612;2023-01-16T00:58:23;24.13;;;16.25;;
75061;SDS011;63641;46.526;24.612;2023-01-16T01:00:51;22.35;;;16.38;;
75061;SDS011;63641;46.526;24.612;2023-01-16T01:03:18;18.92;;;13.20;;
75061;SDS011;63641;46.526;24.612;2023-01-16T01:05:45;15.50;;;12.18;;
75061;SDS011;63641;46.526;24.612;2023-01-16T01:08:12;15.15;;;12.02;;
75061;SDS011;63641;46.526;24.612;2023-01-16T01:10:38;16.42;;;11.85;;
75061;SDS011;63641;46.526;24.612;2023-01-16T01:13:06;15.20;;;11.18;;
75061;SDS011;63641;46.526;24.612;2023-01-16T01:15:33;13.88;;;10.77;;
75061;SDS011;63641;46.526;24.612;2023-01-16T01:18:00;12.65;;;10.23;;
75061;SDS011;63641;46.526;24.612;2023-01-16T01:20:26;14.00;;;9.73;;
75061;SDS011;63641;46.526;24.612;2023-01-16T01:22:54;16.35;;;9.75;;
75061;SDS011;63641;46.526;24.612;2023-01-16T01:25:20;11.30;;;9.48;;
75061;SDS011;63641;46.526;24.612;2023-01-16T01:27:48;10.65;;;9.60;;
75061;SDS011;63641;46.526;24.612;2023-01-16T01:30:15;12.55;;;9.27;;
75061;SDS011;63641;46.526;24.612;2023-01-16T01:32:43;12.63;;;9.40;;
75061;SDS011;63641;46.526;24.612;2023-01-16T01:35:09;14.40;;;10.60;;
75061;SDS011;63641;46.526;24.612;2023-01-16T01:37:36;13.25;;;10.18;;
75061;SDS011;63641;46.526;24.612;2023-01-16T01:40:03;13.27;;;9.70;;
75061;SDS011;63641;46.526;24.612;2023-01-16T01:42:40;11.13;;;9.23;;
75061;SDS011;63641;46.526;24.612;2023-01-16T01:45:14;14.10;;;9.65;;
75061;SDS011;63641;46.526;24.612;2023-01-16T01:47:49;12.18;;;9.68;;
75061;SDS011;63641;46.526;24.612;2023-01-16T01:50:38;11.10;;;9.77;;
75061;SDS011;63641;46.526;24.612;2023-01-16T01:53:08;14.82;;;9.98;;
75061;SDS011;63641;46.526;24.612;2023-01-16T01:55:39;16.38;;;12.48;;
75061;SDS011;63641;46.526;24.612;2023-01-16T01:58:08;18.88;;;14.40;;
75061;SDS011;63641;46.526;24.612;2023-01-16T02:00:36;20.13;;;14.88;;
75061;SDS011;63641;46.526;24.612;2023-01-16T02:03:06;17.50;;;14.45;;
75061;SDS011;63641;46.526;24.612;2023-01-16T02:05:40;21.27;;;15.93;;
75061;SDS011;63641;46.526;24.612;2023-01-16T02:08:13;20.90;;;13.30;;
75061;SDS011;63641;46.526;24.612;2023-01-16T02:13:13;15.55;;;11.75;;
75061;SDS011;63641;46.526;24.612;2023-01-16T02:15:40;14.80;;;12.13;;
75061;SDS011;63641;46.526;24.612;2023-01-16T02:18:27;15.93;;;11.55;;
75061;SDS011;63641;46.526;24.612;2023-01-16T02:21:28;14.77;;;10.57;;
75061;SDS011;63641;46.526;24.612;2023-01-16T02:45:48;16.15;;;11.65;;
75061;SDS011;63641;46.526;24.612;2023-01-16T02:51:06;14.25;;;10.85;;
75061;SDS011;63641;46.526;24.612;2023-01-16T02:56:27;22.17;;;16.48;;
75061;SDS011;63641;46.526;24.612;2023-01-16T02:59:00;22.13;;;14.80;;
75061;SDS011;63641;46.526;24.612;2023-01-16T03:01:27;20.63;;;15.95;;
75061;SDS011;63641;46.526;24.612;2023-01-16T03:12:06;15.13;;;9.82;;
75061;SDS011;63641;46.526;24.612;2023-01-16T03:15:03;139.43;;;17.20;;
75061;SDS011;63641;46.526;24.612;2023-01-16T03:17:48;62.67;;;13.25;;
75061;SDS011;63641;46.526;24.612;2023-01-16T03:20:51;15.18;;;11.23;;
75061;SDS011;63641;46.526;24.612;2023-01-16T03:26:13;14.07;;;10.93;;
75061;SDS011;63641;46.526;24.612;2023-01-16T03:31:17;14.55;;;10.63;;
75061;SDS011;63641;46.526;24.612;2023-01-16T03:36:46;14.55;;;11.70;;
75061;SDS011;63641;46.526;24.612;2023-01-16T03:39:21;15.38;;;11.38;;
75061;SDS011;63641;46.526;24.612;2023-01-16T03:41:52;15.85;;;12.25;;
75061;SDS011;63641;46.526;24.612;2023-01-16T03:44:25;21.38;;;14.73;;
75061;SDS011;63641;46.526;24.612;2023-01-16T03:46:56;22.25;;;14.90;;
75061;SDS011;63641;46.526;24.612;2023-01-16T03:49:37;18.25;;;14.15;;
75061;SDS011;63641;46.526;24.612;2023-01-16T03:52:10;18.90;;;13.88;;
75061;SDS011;63641;46.526;24.612;2023-01-16T03:54:42;20.88;;;14.45;;
75061;SDS011;63641;46.526;24.612;2023-01-16T03:57:24;19.25;;;12.93;;
75061;SDS011;63641;46.526;24.612;2023-01-16T03:59:57;18.95;;;14.10;;
75061;SDS011;63641;46.526;24.612;2023-01-16T04:02:27;708.17;;;42.95;;
75061;SDS011;63641;46.526;24.612;2023-01-16T04:05:03;501.60;;;33.70;;
75061;SDS011;63641;46.526;24.612;2023-01-16T04:07:39;18.10;;;13.48;;
75061;SDS011;63641;46.526;24.612;2023-01-16T04:10:20;17.40;;;12.98;;
75061;SDS011;63641;46.526;24.612;2023-01-16T04:12:51;17.27;;;12.15;;
75061;SDS011;63641;46.526;24.612;2023-01-16T04:15:22;14.73;;;11.50;;
75061;SDS011;63641;46.526;24.612;2023-01-16T04:17:53;14.73;;;11.45;;
75061;SDS011;63641;46.526;24.612;2023-01-16T04:20:21;15.27;;;10.55;;
75061;SDS011;63641;46.526;24.612;2023-01-16T04:22:50;16.90;;;11.93;;
75061;SDS011;63641;46.526;24.612;2023-01-16T04:25:17;34.17;;;12.13;;
75061;SDS011;63641;46.526;24.612;2023-01-16T04:27:45;15.85;;;10.98;;
75061;SDS011;63641;46.526;24.612;2023-01-16T04:30:12;15.65;;;11.75;;
75061;SDS011;63641;46.526;24.612;2023-01-16T04:32:39;14.27;;;10.35;;
75061;SDS011;63641;46.526;24.612;2023-01-16T04:35:06;40.22;;;11.00;;
75061;SDS011;63641;46.526;24.612;2023-01-16T04:37:33;28.42;;;11.10;;
75061;SDS011;63641;46.526;24.612;2023-01-16T04:40:00;16.35;;;11.35;;
75061;SDS011;63641;46.526;24.612;2023-01-16T04:42:27;13.23;;;10.75;;
75061;SDS011;63641;46.526;24.612;2023-01-16T04:44:54;11.93;;;10.15;;
75061;SDS011;63641;46.526;24.612;2023-01-16T04:47:21;13.32;;;10.52;;
75061;SDS011;63641;46.526;24.612;2023-01-16T04:49:47;14.07;;;10.35;;
75061;SDS011;63641;46.526;24.612;2023-01-16T04:52:14;13.18;;;10.63;;
75061;SDS011;63641;46.526;24.612;2023-01-16T04:54:41;16.60;;;13.07;;
75061;SDS011;63641;46.526;24.612;2023-01-16T04:57:08;23.23;;;14.93;;
75061;SDS011;63641;46.526;24.612;2023-01-16T04:59:35;27.67;;;15.15;;
75061;SDS011;63641;46.526;24.612;2023-01-16T05:02:01;220.75;;;22.73;;
75061;SDS011;63641;46.526;24.612;2023-01-16T05:04:28;21.75;;;15.85;;
75061;SDS011;63641;46.526;24.612;2023-01-16T05:06:55;168.65;;;20.27;;
75061;SDS011;63641;46.526;24.612;2023-01-16T05:09:22;21.10;;;15.20;;
75061;SDS011;63641;46.526;24.612;2023-01-16T05:11:49;22.17;;;16.02;;
75061;SDS011;63641;46.526;24.612;2023-01-16T05:14:15;21.60;;;15.93;;
75061;SDS011;63641;46.526;24.612;2023-01-16T05:16:42;21.75;;;13.60;;
75061;SDS011;63641;46.526;24.612;2023-01-16T05:19:09;24.15;;;16.02;;
75061;SDS011;63641;46.526;24.612;2023-01-16T05:21:36;28.23;;;17.58;;
75061;SDS011;63641;46.526;24.612;2023-01-16T05:24:04;33.35;;;22.35;;
75061;SDS011;63641;46.526;24.612;2023-01-16T05:26:31;34.58;;;22.10;;
75061;SDS011;63641;46.526;24.612;2023-01-16T05:28:58;28.20;;;19.67;;
75061;SDS011;63641;46.526;24.612;2023-01-16T05:31:25;26.70;;;17.25;;
75061;SDS011;63641;46.526;24.612;2023-01-16T05:33:52;24.08;;;16.73;;
75061;SDS011;63641;46.526;24.612;2023-01-16T05:36:18;22.65;;;16.20;;
75061;SDS011;63641;46.526;24.612;2023-01-16T05:38:45;42.58;;;17.25;;
75061;SDS011;63641;46.526;24.612;2023-01-16T05:41:12;298.67;;;25.27;;
75061;SDS011;63641;46.526;24.612;2023-01-16T05:43:39;109.40;;;16.50;;
75061;SDS011;63641;46.526;24.612;2023-01-16T05:46:06;325.10;;;23.42;;
75061;SDS011;63641;46.526;24.612;2023-01-16T05:48:33;51.28;;;16.50;;
75061;SDS011;63641;46.526;24.612;2023-01-16T05:51:02;19.80;;;14.23;;
75061;SDS011;63641;46.526;24.612;2023-01-16T05:53:29;16.58;;;12.38;;
75061;SDS011;63641;46.526;24.612;2023-01-16T05:55:57;173.25;;;18.83;;
75061;SDS011;63641;46.526;24.612;2023-01-16T05:58:24;16.92;;;12.70;;
75061;SDS011;63641;46.526;24.612;2023-01-16T06:00:51;19.75;;;14.80;;
75061;SDS011;63641;46.526;24.612;2023-01-16T06:03:18;34.38;;;23.30;;
75061;SDS011;63641;46.526;24.612;2023-01-16T06:05:45;23.27;;;17.10;;
75061;SDS011;63641;46.526;24.612;2023-01-16T06:08:12;22.02;;;17.13;;
75061;SDS011;63641;46.526;24.612;2023-01-16T06:10:38;23.05;;;16.70;;
75061;SDS011;63641;46.526;24.612;2023-01-16T06:13:05;19.33;;;14.10;;
75061;SDS011;63641;46.526;24.612;2023-01-16T06:15:32;22.33;;;15.77;;
75061;SDS011;63641;46.526;24.612;2023-01-16T06:18:00;27.13;;;18.42;;
75061;SDS011;63641;46.526;24.612;2023-01-16T06:20:27;26.92;;;18.67;;
75061;SDS011;63641;46.526;24.612;2023-01-16T06:22:53;28.45;;;21.85;;
75061;SDS011;63641;46.526;24.612;2023-01-16T06:25:20;41.53;;;24.73;;
75061;SDS011;63641;46.526;24.612;2023-01-16T06:27:48;33.47;;;24.25;;
75061;SDS011;63641;46.526;24.612;2023-01-16T06:30:16;39.03;;;26.77;;
75061;SDS011;63641;46.526;24.612;2023-01-16T06:32:48;31.08;;;20.65;;
75061;SDS011;63641;46.526;24.612;2023-01-16T06:35:16;29.27;;;20.67;;
75061;SDS011;63641;46.526;24.612;2023-01-16T06:37:44;28.85;;;20.08;;
75061;SDS011;63641;46.526;24.612;2023-01-16T06:40:10;28.95;;;19.73;;
75061;SDS011;63641;46.526;24.612;2023-01-16T06:42:37;29.42;;;19.25;;
75061;SDS011;63641;46.526;24.612;2023-01-16T06:45:05;26.23;;;18.13;;
75061;SDS011;63641;46.526;24.612;2023-01-16T06:47:32;25.27;;;18.60;;
75061;SDS011;63641;46.526;24.612;2023-01-16T06:49:59;23.98;;;17.80;;
75061;SDS011;63641;46.526;24.612;2023-01-16T06:52:26;21.98;;;15.82;;
75061;SDS011;63641;46.526;24.612;2023-01-16T06:54:53;17.58;;;13.32;;
75061;SDS011;63641;46.526;24.612;2023-01-16T06:57:20;17.42;;;12.55;;
75061;SDS011;63641;46.526;24.612;2023-01-16T06:59:46;19.15;;;12.95;;
75061;SDS011;63641;46.526;24.612;2023-01-16T07:02:13;19.83;;;13.73;;
75061;SDS011;63641;46.526;24.612;2023-01-16T07:04:40;18.63;;;13.65;;
75061;SDS011;63641;46.526;24.612;2023-01-16T07:07:07;22.83;;;16.90;;
75061;SDS011;63641;46.526;24.612;2023-01-16T07:09:34;17.45;;;12.95;;
75061;SDS011;63641;46.526;24.612;2023-01-16T07:12:00;14.05;;;11.43;;
75061;SDS011;63641;46.526;24.612;2023-01-16T07:14:27;22.80;;;16.73;;
75061;SDS011;63641;46.526;24.612;2023-01-16T07:17:13;74.05;;;47.80;;
75061;SDS011;63641;46.526;24.612;2023-01-16T07:19:58;75.90;;;46.15;;
75061;SDS011;63641;46.526;24.612;2023-01-16T07:22:44;87.05;;;50.28;;
75061;SDS011;63641;46.526;24.612;2023-01-16T07:25:16;83.78;;;53.33;;
75061;SDS011;63641;46.526;24.612;2023-01-16T07:27:55;78.68;;;50.13;;
75061;SDS011;63641;46.526;24.612;2023-01-16T07:30:21;87.10;;;55.10;;
75061;SDS011;63641;46.526;24.612;2023-01-16T07:32:48;89.38;;;56.55;;
75061;SDS011;63641;46.526;24.612;2023-01-16T07:35:16;80.55;;;50.83;;
75061;SDS011;63641;46.526;24.612;2023-01-16T07:37:43;73.50;;;48.17;;
75061;SDS011;63641;46.526;24.612;2023-01-16T07:40:12;70.82;;;45.83;;
75061;SDS011;63641;46.526;24.612;2023-01-16T07:42:39;55.22;;;39.78;;
75061;SDS011;63641;46.526;24.612;2023-01-16T07:45:06;59.00;;;40.63;;
75061;SDS011;63641;46.526;24.612;2023-01-16T07:47:33;50.70;;;35.33;;
75061;SDS011;63641;46.526;24.612;2023-01-16T07:50:01;40.22;;;28.15;;
75061;SDS011;63641;46.526;24.612;2023-01-16T07:52:27;36.28;;;26.80;;
75061;SDS011;63641;46.526;24.612;2023-01-16T07:54:54;30.23;;;22.73;;
75061;SDS011;63641;46.526;24.612;2023-01-16T07:57:22;24.70;;;18.50;;
75061;SDS011;63641;46.526;24.612;2023-01-16T07:59:48;25.15;;;17.90;;
75061;SDS011;63641;46.526;24.612;2023-01-16T08:02:15;22.73;;;16.58;;
75061;SDS011;63641;46.526;24.612;2023-01-16T08:04:43;22.67;;;16.60;;
75061;SDS011;63641;46.526;24.612;2023-01-16T08:07:09;24.83;;;18.40;;
75061;SDS011;63641;46.526;24.612;2023-01-16T08:09:36;27.08;;;19.42;;
75061;SDS011;63641;46.526;24.612;2023-01-16T08:12:03;26.73;;;19.75;;
75061;SDS011;63641;46.526;24.612;2023-01-16T08:14:30;43.97;;;30.33;;
75061;SDS011;63641;46.526;24.612;2023-01-16T08:16:57;37.55;;;25.98;;
75061;SDS011;63641;46.526;24.612;2023-01-16T08:19:24;43.72;;;30.65;;
75061;SDS011;63641;46.526;24.612;2023-01-16T08:21:51;37.72;;;27.63;;
75061;SDS011;63641;46.526;24.612;2023-01-16T08:24:18;43.38;;;25.60;;
75061;SDS011;63641;46.526;24.612;2023-01-16T08:26:45;34.55;;;25.63;;
75061;SDS011;63641;46.526;24.612;2023-01-16T08:29:11;36.58;;;25.98;;
75061;SDS011;63641;46.526;24.612;2023-01-16T08:31:38;31.60;;;23.83;;
75061;SDS011;63641;46.526;24.612;2023-01-16T08:34:05;33.25;;;22.60;;
75061;SDS011;63641;46.526;24.612;2023-01-16T08:36:32;27.45;;;21.10;;
75061;SDS011;63641;46.526;24.612;2023-01-16T08:38:59;37.85;;;26.52;;
75061;SDS011;63641;46.526;24.612;2023-01-16T08:41:26;42.58;;;29.95;;
75061;SDS011;63641;46.526;24.612;2023-01-16T08:44:14;60.17;;;38.38;;
75061;SDS011;63641;46.526;24.612;2023-01-16T08:47:01;93.35;;;52.20;;
75061;SDS011;63641;46.526;24.612;2023-01-16T08:49:53;64.40;;;40.60;;
75061;SDS011;63641;46.526;24.612;2023-01-16T08:52:38;55.22;;;35.25;;
75061;SDS011;63641;46.526;24.612;2023-01-16T08:55:05;54.05;;;34.70;;
75061;SDS011;63641;46.526;24.612;2023-01-16T08:57:33;45.53;;;29.45;;
75061;SDS011;63641;46.526;24.612;2023-01-16T09:00:02;48.67;;;30.90;;
75061;SDS011;63641;46.526;24.612;2023-01-16T09:02:30;43.00;;;28.65;;
75061;SDS011;63641;46.526;24.612;2023-01-16T09:05:00;39.03;;;29.75;;
75061;SDS011;63641;46.526;24.612;2023-01-16T09:07:27;42.03;;;32.13;;
75061;SDS011;63641;46.526;24.612;2023-01-16T09:09:55;48.13;;;34.90;;
75061;SDS011;63641;46.526;24.612;2023-01-16T09:12:22;53.17;;;38.42;;
75061;SDS011;63641;46.526;24.612;2023-01-16T09:15:07;56.45;;;41.05;;
75061;SDS011;63641;46.526;24.612;2023-01-16T09:17:34;51.05;;;37.60;;
75061;SDS011;63641;46.526;24.612;2023-01-16T09:20:01;58.00;;;42.35;;
75061;SDS011;63641;46.526;24.612;2023-01-16T09:22:28;60.92;;;42.17;;
75061;SDS011;63641;46.526;24.612;2023-01-16T09:24:55;50.40;;;36.47;;
75061;SDS011;63641;46.526;24.612;2023-01-16T09:27:22;50.85;;;37.17;;
75061;SDS011;63641;46.526;24.612;2023-01-16T09:29:51;54.00;;;36.28;;
75061;SDS011;63641;46.526;24.612;2023-01-16T09:32:18;49.30;;;35.03;;
75061;SDS011;63641;46.526;24.612;2023-01-16T09:34:45;44.28;;;33.67;;
75061;SDS011;63641;46.526;24.612;2023-01-16T09:37:12;45.25;;;32.65;;
75061;SDS011;63641;46.526;24.612;2023-01-16T09:39:39;36.90;;;27.23;;
75061;SDS011;63641;46.526;24.612;2023-01-16T09:44:59;39.35;;;28.35;;
75061;SDS011;63641;46.526;24.612;2023-01-16T09:47:30;33.17;;;25.30;;
75061;SDS011;63641;46.526;24.612;2023-01-16T09:50:04;32.33;;;23.67;;
75061;SDS011;63641;46.526;24.612;2023-01-16T09:52:38;28.77;;;20.10;;
75061;SDS011;63641;46.526;24.612;2023-01-16T09:55:27;24.58;;;18.95;;
75061;SDS011;63641;46.526;24.612;2023-01-16T09:58:23;22.52;;;16.67;;
75061;SDS011;63641;46.526;24.612;2023-01-16T10:01:06;20.17;;;15.57;;
75061;SDS011;63641;46.526;24.612;2023-01-16T10:03:33;17.33;;;12.50;;
75061;SDS011;63641;46.526;24.612;2023-01-16T10:11:49;11.50;;;9.35;;
75061;SDS011;63641;46.526;24.612;2023-01-16T10:17:58;13.45;;;10.75;;
75061;SDS011;63641;46.526;24.612;2023-01-16T10:20:17;11.38;;;9.43;;
75061;SDS011;63641;46.526;24.612;2023-01-16T10:26:04;13.93;;;9.90;;
75061;SDS011;63641;46.526;24.612;2023-01-16T10:33:57;13.88;;;9.30;;
75061;SDS011;63641;46.526;24.612;2023-01-16T10:36:39;14.10;;;10.13;;
75061;SDS011;63641;46.526;24.612;2023-01-16T10:39:10;12.27;;;10.05;;
75061;SDS011;63641;46.526;24.612;2023-01-16T10:41:49;15.38;;;11.13;;
75061;SDS011;63641;46.526;24.612;2023-01-16T10:44:45;12.05;;;8.85;;
75061;SDS011;63641;46.526;24.612;2023-01-16T10:47:39;15.32;;;11.43;;
75061;SDS011;63641;46.526;24.612;2023-01-16T10:50:24;14.90;;;11.65;;
75061;SDS011;63641;46.526;24.612;2023-01-16T10:53:02;15.43;;;11.45;;
75061;SDS011;63641;46.526;24.612;2023-01-16T10:55:34;17.77;;;12.80;;
75061;SDS011;63641;46.526;24.612;2023-01-16T10:58:04;22.48;;;15.70;;
75061;SDS011;63641;46.526;24.612;2023-01-16T11:00:34;17.30;;;12.57;;
75061;SDS011;63641;46.526;24.612;2023-01-16T11:03:08;17.45;;;12.65;;
75061;SDS011;63641;46.526;24.612;2023-01-16T11:05:40;17.00;;;12.77;;
75061;SDS011;63641;46.526;24.612;2023-01-16T11:08:14;18.17;;;13.68;;
75061;SDS011;63641;46.526;24.612;2023-01-16T11:10:44;13.52;;;10.50;;
75061;SDS011;63641;46.526;24.612;2023-01-16T11:13:13;14.30;;;11.27;;
75061;SDS011;63641;46.526;24.612;2023-01-16T11:16:05;10.95;;;9.30;;
75061;SDS011;63641;46.526;24.612;2023-01-16T11:18:57;11.38;;;8.82;;
75061;SDS011;63641;46.526;24.612;2023-01-16T11:21:29;13.82;;;10.20;;
75061;SDS011;63641;46.526;24.612;2023-01-16T11:24:32;15.05;;;10.35;;
75061;SDS011;63641;46.526;24.612;2023-01-16T11:27:00;14.40;;;10.27;;
75061;SDS011;63641;46.526;24.612;2023-01-16T11:29:32;15.70;;;10.32;;
75061;SDS011;63641;46.526;24.612;2023-01-16T11:32:04;13.25;;;9.75;;
75061;SDS011;63641;46.526;24.612;2023-01-16T11:34:36;13.13;;;9.90;;
75061;SDS011;63641;46.526;24.612;2023-01-16T11:37:10;12.73;;;10.30;;
75061;SDS011;63641;46.526;24.612;2023-01-16T11:39:40;11.77;;;9.32;;
75061;SDS011;63641;46.526;24.612;2023-01-16T11:42:11;11.90;;;8.73;;
75061;SDS011;63641;46.526;24.612;2023-01-16T11:44:57;10.95;;;8.63;;
75061;SDS011;63641;46.526;24.612;2023-01-16T11:47:44;11.15;;;8.52;;
75061;SDS011;63641;46.526;24.612;2023-01-16T11:50:27;11.25;;;9.45;;
75061;SDS011;63641;46.526;24.612;2023-01-16T11:52:57;13.38;;;10.57;;
75061;SDS011;63641;46.526;24.612;2023-01-16T11:55:39;11.32;;;9.90;;
75061;SDS011;63641;46.526;24.612;2023-01-16T11:58:18;12.07;;;9.70;;
75061;SDS011;63641;46.526;24.612;2023-01-16T12:00:55;14.45;;;9.93;;
75061;SDS011;63641;46.526;24.612;2023-01-16T12:08:54;14.50;;;9.02;;
75061;SDS011;63641;46.526;24.612;2023-01-16T12:31:41;9.75;;;8.52;;
75061;SDS011;63641;46.526;24.612;2023-01-16T12:39:42;14.80;;;10.18;;
75061;SDS011;63641;46.526;24.612;2023-01-16T12:47:54;20.45;;;13.15;;
75061;SDS011;63641;46.526;24.612;2023-01-16T12:50:42;20.17;;;12.48;;
75061;SDS011;63641;46.526;24.612;2023-01-16T12:53:36;17.02;;;11.90;;
75061;SDS011;63641;46.526;24.612;2023-01-16T12:58:51;17.80;;;12.68;;
75061;SDS011;63641;46.526;24.612;2023-01-16T13:04:00;23.83;;;14.60;;
75061;SDS011;63641;46.526;24.612;2023-01-16T13:09:15;15.07;;;9.80;;
75061;SDS011;63641;46.526;24.612;2023-01-16T13:12:05;13.50;;;9.68;;
75061;SDS011;63641;46.526;24.612;2023-01-16T13:15:00;19.85;;;12.77;;
75061;SDS011;63641;46.526;24.612;2023-01-16T13:17:41;18.23;;;13.52;;
75061;SDS011;63641;46.526;24.612;2023-01-16T13:20:12;17.80;;;12.85;;
75061;SDS011;63641;46.526;24.612;2023-01-16T13:22:51;20.95;;;12.98;;
75061;SDS011;63641;46.526;24.612;2023-01-16T13:25:26;18.48;;;13.35;;
75061;SDS011;63641;46.526;24.612;2023-01-16T13:27:59;12.25;;;10.20;;
75061;SDS011;63641;46.526;24.612;2023-01-16T13:30:28;14.15;;;10.65;;
75061;SDS011;63641;46.526;24.612;2023-01-16T13:32:59;14.75;;;11.75;;
75061;SDS011;63641;46.526;24.612;2023-01-16T13:38:32;14.75;;;10.65;;
75061;SDS011;63641;46.526;24.612;2023-01-16T13:41:30;14.48;;;11.38;;
75061;SDS011;63641;46.526;24.612;2023-01-16T13:44:07;14.07;;;10.70;;
75061;SDS011;63641;46.526;24.612;2023-01-16T13:47:02;14.80;;;10.77;;
75061;SDS011;63641;46.526;24.612;2023-01-16T13:49:33;14.55;;;10.68;;
75061;SDS011;63641;46.526;24.612;2023-01-16T13:52:01;13.75;;;10.57;;
75061;SDS011;63641;46.526;24.612;2023-01-16T13:54:36;17.10;;;12.18;;
75061;SDS011;63641;46.526;24.612;2023-01-16T13:57:09;12.10;;;10.05;;
75061;SDS011;63641;46.526;24.612;2023-01-16T14:03:00;11.25;;;8.90;;
75061;SDS011;63641;46.526;24.612;2023-01-16T14:08:04;12.23;;;9.90;;
75061;SDS011;63641;46.526;24.612;2023-01-16T14:11:02;13.55;;;10.20;;
75061;SDS011;63641;46.526;24.612;2023-01-16T14:13:36;14.20;;;9.73;;
75061;SDS011;63641;46.526;24.612;2023-01-16T14:16:26;12.77;;;10.20;;
75061;SDS011;63641;46.526;24.612;2023-01-16T14:19:23;17.63;;;10.57;;
75061;SDS011;63641;46.526;24.612;2023-01-16T14:21:49;11.32;;;8.93;;
75061;SDS011;63641;46.526;24.612;2023-01-16T14:24:50;10.25;;;7.68;;
75061;SDS011;63641;46.526;24.612;2023-01-16T14:27:24;11.98;;;8.10;;
75061;SDS011;63641;46.526;24.612;2023-01-16T14:29:59;10.93;;;8.40;;
75061;SDS011;63641;46.526;24.612;2023-01-16T14:32:28;10.63;;;7.68;;
75061;SDS011;63641;46.526;24.612;2023-01-16T14:35:01;11.73;;;8.05;;
75061;SDS011;63641;46.526;24.612;2023-01-16T14:37:41;14.40;;;8.63;;
75061;SDS011;63641;46.526;24.612;2023-01-16T14:42:52;10.38;;;8.10;;
75061;SDS011;63641;46.526;24.612;2023-01-16T14:45:41;19.47;;;14.30;;
75061;SDS011;63641;46.526;24.612;2023-01-16T14:48:59;50.65;;;32.42;;
75061;SDS011;63641;46.526;24.612;2023-01-16T14:58:18;19.17;;;13.32;;
75061;SDS011;63641;46.526;24.612;2023-01-16T15:00:49;16.52;;;13.02;;
75061;SDS011;63641;46.526;24.612;2023-01-16T15:03:26;14.13;;;10.40;;
75061;SDS011;63641;46.526;24.612;2023-01-16T15:05:57;15.13;;;11.18;;
75061;SDS011;63641;46.526;24.612;2023-01-16T15:08:35;10.30;;;8.65;;
75061;SDS011;63641;46.526;24.612;2023-01-16T15:19:59;9.82;;;7.75;;
75061;SDS011;63641;46.526;24.612;2023-01-16T15:22:45;10.85;;;7.93;;
75061;SDS011;63641;46.526;24.612;2023-01-16T15:30:59;11.77;;;8.73;;
75061;SDS011;63641;46.526;24.612;2023-01-16T15:33:31;11.77;;;8.82;;
75061;SDS011;63641;46.526;24.612;2023-01-16T15:38:44;13.05;;;8.82;;
75061;SDS011;63641;46.526;24.612;2023-01-16T15:41:18;9.98;;;8.05;;
75061;SDS011;63641;46.526;24.612;2023-01-16T15:44:11;15.48;;;11.13;;
75061;SDS011;63641;46.526;24.612;2023-01-16T15:47:05;23.13;;;15.00;;
75061;SDS011;63641;46.526;24.612;2023-01-16T15:52:12;17.00;;;12.65;;
75061;SDS011;63641;46.526;24.612;2023-01-16T15:54:39;16.67;;;11.48;;
75061;SDS011;63641;46.526;24.612;2023-01-16T15:57:13;17.15;;;9.68;;
75061;SDS011;63641;46.526;24.612;2023-01-16T15:59:51;14.95;;;9.45;;
75061;SDS011;63641;46.526;24.612;2023-01-16T16:02:20;12.88;;;8.23;;
75061;SDS011;63641;46.526;24.612;2023-01-16T16:04:51;9.77;;;7.85;;
75061;SDS011;63641;46.526;24.612;2023-01-16T16:07:20;12.25;;;8.30;;
75061;SDS011;63641;46.526;24.612;2023-01-16T16:09:49;12.63;;;8.32;;
75061;SDS011;63641;46.526;24.612;2023-01-16T16:12:19;10.98;;;7.68;;
75061;SDS011;63641;46.526;24.612;2023-01-16T16:14:47;9.30;;;7.47;;
75061;SDS011;63641;46.526;24.612;2023-01-16T16:17:33;10.15;;;7.07;;
75061;SDS011;63641;46.526;24.612;2023-01-16T16:30:53;9.05;;;6.90;;
75061;SDS011;63641;46.526;24.612;2023-01-16T16:33:22;8.55;;;7.13;;
75061;SDS011;63641;46.526;24.612;2023-01-16T16:35:50;12.77;;;8.48;;
75061;SDS011;63641;46.526;24.612;2023-01-16T16:48:50;28.20;;;19.88;;
75061;SDS011;63641;46.526;24.612;2023-01-16T16:51:19;28.42;;;19.00;;
75061;SDS011;63641;46.526;24.612;2023-01-16T16:53:54;32.35;;;22.75;;
75061;SDS011;63641;46.526;24.612;2023-01-16T16:56:27;26.98;;;19.15;;
75061;SDS011;63641;46.526;24.612;2023-01-16T16:58:56;19.92;;;13.90;;
75061;SDS011;63641;46.526;24.612;2023-01-16T17:01:34;14.52;;;11.35;;
75061;SDS011;63641;46.526;24.612;2023-01-16T17:04:03;13.93;;;11.18;;
75061;SDS011;63641;46.526;24.612;2023-01-16T17:06:33;21.65;;;16.60;;
75061;SDS011;63641;46.526;24.612;2023-01-16T17:09:02;20.05;;;14.98;;
75061;SDS011;63641;46.526;24.612;2023-01-16T17:11:31;18.65;;;13.43;;
75061;SDS011;63641;46.526;24.612;2023-01-16T17:13:57;19.05;;;14.15;;
75061;SDS011;63641;46.526;24.612;2023-01-16T17:16:25;19.65;;;15.18;;
75061;SDS011;63641;46.526;24.612;2023-01-16T17:18:57;20.35;;;14.20;;
75061;SDS011;63641;46.526;24.612;2023-01-16T17:21:28;19.00;;;12.35;;
75061;SDS011;63641;46.526;24.612;2023-01-16T17:23:55;22.63;;;16.08;;
75061;SDS011;63641;46.526;24.612;2023-01-16T17:26:22;18.40;;;11.77;;
75061;SDS011;63641;46.526;24.612;2023-01-16T17:28:49;21.80;;;16.30;;
75061;SDS011;63641;46.526;24.612;2023-01-16T17:31:18;19.38;;;14.18;;